Time;durP1;ratioP1;P1;durP2;ratioP2;P2;SDS_P1;SDS_P2;PMS_P1;PMS_P2;Temp;Humidity;BMP_temperature;BMP_pressure;BME280_temperature;BME280_humidity;BME280_pressure;Samples;Min_cycle;Max_cycle;Signal;HPM_P1;HPM_P2
2022/06/25 00:01:24;;;;;;;8.98;7.30;;;;;;;19.78;86.17;100857.03;5004203;28;20101;-68
2022/06/25 00:03:49;;;;;;;10.18;7.80;;;;;;;19.83;85.66;100857.53;5004215;28;20037;-68
2022/06/25 00:06:15;;;;;;;9.05;6.75;;;;;;;19.83;86.12;100855.72;5002542;28;20026;-67
2022/06/25 00:08:41;;;;;;;8.75;7.05;;;;;;;19.85;85.44;100857.41;5003985;28;20040;-69
2022/06/25 00:11:07;;;;;;;8.07;7.28;;;;;;;19.82;85.89;100848.69;5004380;28;20030;-69
2022/06/25 00:13:33;;;;;;;11.25;7.00;;;;;;;19.77;85.79;100860.66;5003828;28;20504;-68
2022/06/25 00:15:59;;;;;;;6.65;6.05;;;;;;;19.74;85.72;100855.56;5004623;28;20033;-69
2022/06/25 00:18:25;;;;;;;12.88;6.60;;;;;;;19.73;86.06;100856.50;5004074;28;20034;-68
2022/06/25 00:20:51;;;;;;;7.03;6.20;;;;;;;19.69;85.75;100861.22;5002685;28;20033;-67
2022/06/25 00:23:16;;;;;;;9.32;7.47;;;;;;;19.64;86.16;100858.03;5003793;28;20033;-69
2022/06/25 00:25:42;;;;;;;8.57;7.35;;;;;;;19.63;86.23;100859.00;5004607;28;20293;-67
2022/06/25 00:28:07;;;;;;;9.20;8.30;;;;;;;19.57;86.13;100857.63;5003052;28;20041;-69
2022/06/25 00:30:33;;;;;;;7.55;6.65;;;;;;;19.59;86.11;100863.69;5004794;28;20483;-68
2022/06/25 00:32:59;;;;;;;10.43;7.82;;;;;;;19.55;86.47;100859.53;5005138;28;20380;-68
2022/06/25 00:35:25;;;;;;;10.65;7.45;;;;;;;19.50;86.24;100856.38;5005391;28;20037;-68
2022/06/25 00:37:50;;;;;;;8.98;7.32;;;;;;;19.42;86.63;100860.41;5003431;28;20026;-67
2022/06/25 00:40:16;;;;;;;8.98;7.80;;;;;;;19.41;86.86;100866.72;5002484;28;20048;-67
2022/06/25 00:42:45;;;;;;;9.38;7.07;;;;;;;19.35;87.13;100861.81;5003088;28;20065;-68
2022/06/25 00:45:11;;;;;;;11.07;8.75;;;;;;;19.36;87.27;100858.22;5003497;28;20034;-69
2022/06/25 00:47:36;;;;;;;10.15;8.30;;;;;;;19.34;87.31;100865.47;5004697;28;20527;-67
2022/06/25 00:50:02;;;;;;;8.55;7.68;;;;;;;19.29;87.42;100867.59;5001767;28;20058;-68
2022/06/25 00:52:31;;;;;;;12.30;7.30;;;;;;;19.31;87.56;100860.34;5003814;28;20510;-69
2022/06/25 00:55:04;;;;;;;8.93;6.85;;;;;;;19.24;87.44;100857.25;5004099;28;21158;-68
2022/06/25 00:57:30;;;;;;;9.02;8.10;;;;;;;19.21;87.86;100865.47;4967931;28;20026;-68
2022/06/25 01:00:15;;;;;;;8.65;7.40;;;;;;;19.19;87.83;100865.59;4982283;28;20031;-67
2022/06/25 01:02:41;;;;;;;8.73;7.43;;;;;;;19.26;87.67;100865.16;5020864;28;20049;-68
2022/06/25 01:05:12;;;;;;;10.73;6.70;;;;;;;19.26;87.45;100875.84;5020984;22;20054;-68
2022/06/25 01:07:38;;;;;;;10.07;7.20;;;;;;;19.25;87.20;100882.13;5008201;28;20026;-68
2022/06/25 01:10:06;;;;;;;8.95;6.72;;;;;;;19.18;86.92;100885.22;5006356;28;20033;-67
2022/06/25 01:12:31;;;;;;;8.55;6.28;;;;;;;19.21;86.63;100888.66;5006783;28;20360;-67
2022/06/25 01:15:08;;;;;;;7.72;6.60;;;;;;;19.18;86.92;100882.56;5007945;28;20022;-67
2022/06/25 01:17:42;;;;;;;9.65;6.18;;;;;;;19.23;86.38;100892.09;5009711;28;20022;-68
2022/06/25 01:20:07;;;;;;;9.52;6.72;;;;;;;19.23;86.14;100889.41;5006727;28;20289;-68
2022/06/25 01:22:33;;;;;;;9.50;6.45;;;;;;;19.21;86.01;100888.66;5005968;28;20030;-67
2022/06/25 01:24:59;;;;;;;10.73;6.10;;;;;;;19.19;86.46;100894.97;5008086;28;20490;-67
2022/06/25 01:27:24;;;;;;;7.90;5.85;;;;;;;19.23;85.97;100900.94;5015620;28;20119;-69
2022/06/25 01:29:49;;;;;;;7.55;6.47;;;;;;;19.22;85.61;100901.03;5026024;28;20124;-68
2022/06/25 01:32:15;;;;;;;10.60;5.85;;;;;;;19.19;85.71;100902.13;5026195;28;20079;-69
2022/06/25 01:34:40;;;;;;;7.60;5.47;;;;;;;19.19;85.83;100905.66;5027711;28;20064;-68
2022/06/25 01:37:06;;;;;;;8.07;5.82;;;;;;;19.19;85.67;100905.66;5020277;28;20026;-68
2022/06/25 01:39:31;;;;;;;7.57;5.32;;;;;;;19.14;85.67;100904.28;5005878;28;20109;-68
2022/06/25 01:41:56;;;;;;;11.02;6.05;;;;;;;19.11;85.29;100910.66;5007453;28;20048;-68
2022/06/25 01:44:23;;;;;;;8.35;5.18;;;;;;;19.06;85.80;100918.13;5005673;28;20129;-69
2022/06/25 01:46:49;;;;;;;8.43;5.93;;;;;;;19.06;85.82;100910.09;5007959;28;20112;-67
2022/06/25 01:49:14;;;;;;;8.18;4.72;;;;;;;19.05;86.07;100919.06;5006571;28;20109;-68
2022/06/25 01:51:39;;;;;;;8.02;5.28;;;;;;;19.04;85.63;100923.56;5007037;28;20026;-67
2022/06/25 01:54:05;;;;;;;6.95;5.38;;;;;;;19.02;86.21;100924.63;5006378;28;20022;-69
2022/06/25 01:56:30;;;;;;;8.23;4.80;;;;;;;19.01;85.81;100933.59;5007704;28;20030;-69
2022/06/25 01:58:55;;;;;;;9.77;5.63;;;;;;;19.01;85.91;100933.59;5007733;28;20081;-68
2022/06/25 02:01:21;;;;;;;9.05;5.50;;;;;;;19.00;86.27;100934.56;5017402;28;20535;-70
2022/06/25 02:03:46;;;;;;;7.70;5.18;;;;;;;19.00;86.22;100930.06;5026731;28;20476;-69
2022/06/25 02:06:11;;;;;;;9.65;5.32;;;;;;;19.02;86.24;100940.66;5018836;28;20495;-69
2022/06/25 02:08:38;;;;;;;10.52;5.30;;;;;;;19.05;85.35;100940.41;5008141;28;20117;-69
2022/06/25 02:11:05;;;;;;;11.90;4.88;;;;;;;18.99;85.52;100946.19;5007053;28;20021;-69
2022/06/25 02:13:31;;;;;;;10.10;4.85;;;;;;;19.05;85.79;100945.75;5008787;28;20476;-69
2022/06/25 02:15:57;;;;;;;7.03;4.50;;;;;;;19.08;85.58;100947.41;5007744;28;20069;-70
2022/06/25 02:18:23;;;;;;;6.53;4.13;;;;;;;19.03;85.52;100947.69;5007011;28;20036;-68
2022/06/25 02:20:49;;;;;;;9.18;4.72;;;;;;;19.06;85.19;100948.31;5005600;28;20507;-68
2022/06/25 02:23:15;;;;;;;5.18;3.75;;;;;;;19.01;84.87;100944.25;5007107;28;20022;-68
2022/06/25 02:25:42;;;;;;;9.40;4.20;;;;;;;19.00;85.04;100942.56;5006544;28;20515;-69
2022/06/25 02:28:07;;;;;;;4.35;3.92;;;;;;;19.03;84.91;100953.03;5006593;28;20052;-70
2022/06/25 02:30:32;;;;;;;7.53;4.28;;;;;;;18.96;85.50;100946.41;5006707;28;20473;-68
2022/06/25 02:32:58;;;;;;;7.63;4.25;;;;;;;18.91;85.06;100949.38;5012517;28;20432;-68
2022/06/25 02:35:23;;;;;;;6.25;4.18;;;;;;;18.89;85.34;100946.81;5005734;28;20025;-69
2022/06/25 02:37:49;;;;;;;7.10;4.03;;;;;;;18.91;85.47;100949.38;5004429;28;20042;-68
2022/06/25 02:40:14;;;;;;;4.78;3.42;;;;;;;18.86;85.38;100946.16;5006018;28;20023;-68
2022/06/25 02:42:40;;;;;;;7.30;4.00;;;;;;;18.89;85.23;100957.50;5017838;28;20034;-67
2022/06/25 02:45:07;;;;;;;10.18;3.42;;;;;;;18.90;85.33;100951.19;5025515;28;20029;-67
2022/06/25 02:47:33;;;;;;;8.20;4.07;;;;;;;18.90;84.65;100961.03;5014657;28;20480;-68
2022/06/25 02:49:58;;;;;;;6.68;3.55;;;;;;;18.90;84.53;100964.53;5005737;28;20037;-69
2022/06/25 02:52:24;;;;;;;11.13;4.35;;;;;;;18.84;84.36;100972.13;5011899;28;20063;-68
2022/06/25 02:54:49;;;;;;;6.00;3.30;;;;;;;18.78;84.91;100970.72;5005889;28;20076;-68
2022/06/25 02:59:58;;;;;;;8.73;3.22;;;;;;;18.80;84.44;100979.47;5006185;28;20494;-68
2022/06/25 03:02:24;;;;;;;5.47;3.38;;;;;;;18.83;84.18;100979.25;5005736;28;20022;-70
2022/06/25 03:04:49;;;;;;;5.75;3.45;;;;;;;18.84;84.59;100983.63;5020251;28;20446;-71
2022/06/25 03:07:15;;;;;;;15.57;4.05;;;;;;;18.90;84.12;100983.22;5023413;28;20049;-69
2022/06/25 03:09:40;;;;;;;5.60;4.20;;;;;;;18.89;84.11;100981.53;5023454;28;20471;-69
2022/06/25 03:12:06;;;;;;;9.93;3.60;;;;;;;18.86;83.54;100986.19;5024973;28;20032;-71
2022/06/25 03:14:31;;;;;;;5.50;3.30;;;;;;;18.91;83.97;100987.59;5012616;28;20388;-67
2022/06/25 03:16:57;;;;;;;9.82;3.58;;;;;;;18.99;83.44;100987.09;5005356;28;20048;-69
2022/06/25 03:19:22;;;;;;;7.18;4.00;;;;;;;18.99;83.27;100988.91;5004061;28;20033;-68
2022/06/25 03:21:48;;;;;;;8.10;4.03;;;;;;;19.06;82.66;100987.53;5004480;28;20056;-66
2022/06/25 03:24:13;;;;;;;6.97;3.40;;;;;;;19.12;82.63;100992.50;5005694;28;20037;-67
2022/06/25 03:26:38;;;;;;;9.90;4.65;;;;;;;19.19;81.86;100988.44;5004987;28;20496;-67
2022/06/25 03:29:04;;;;;;;6.75;4.15;;;;;;;19.27;81.67;100995.91;5003499;28;20026;-66
2022/06/25 03:31:29;;;;;;;10.00;4.18;;;;;;;19.27;80.63;100987.06;5005606;28;20026;-67
2022/06/25 03:33:55;;;;;;;8.95;3.70;;;;;;;19.36;80.78;100989.13;5004707;28;20054;-67
2022/06/25 03:36:20;;;;;;;6.40;3.33;;;;;;;19.46;80.13;100992.00;5003001;28;20244;-68
2022/06/25 03:38:46;;;;;;;6.43;3.30;;;;;;;19.42;80.04;100996.69;5005395;28;20105;-67
2022/06/25 03:43:55;;;;;;;13.60;4.40;;;;;;;19.41;80.10;101008.34;4985859;28;20412;-67
2022/06/25 03:46:20;;;;;;;5.40;3.70;;;;;;;19.48;79.35;101006.13;4984313;28;20494;-68
2022/06/25 03:48:45;;;;;;;10.50;3.25;;;;;;;19.53;79.40;101009.31;5003349;28;20582;-67
2022/06/25 03:51:11;;;;;;;7.47;3.80;;;;;;;19.55;78.97;101003.84;5011912;28;20033;-68
2022/06/25 03:53:36;;;;;;;6.47;3.83;;;;;;;19.57;78.86;101004.63;5007581;28;20016;-67
2022/06/25 03:56:02;;;;;;;5.82;3.85;;;;;;;19.66;78.65;101014.63;5004518;28;20048;-67
2022/06/25 03:58:27;;;;;;;6.38;3.45;;;;;;;19.72;77.89;101008.03;5004053;28;20029;-67
2022/06/25 04:00:52;;;;;;;6.47;3.40;;;;;;;19.80;78.16;101011.00;5003339;28;20038;-67
2022/06/25 04:03:18;;;;;;;5.75;3.40;;;;;;;19.90;76.96;101015.72;5004512;28;20175;-68
2022/06/25 04:05:43;;;;;;;6.93;3.05;;;;;;;19.98;76.40;101013.34;5002567;28;20049;-67
2022/06/25 04:08:09;;;;;;;7.03;3.22;;;;;;;19.99;76.03;101019.53;5004871;28;20464;-68
2022/06/25 04:10:34;;;;;;;6.95;2.95;;;;;;;20.05;75.53;101013.78;5004020;28;20361;-68
2022/06/25 04:12:59;;;;;;;3.85;2.75;;;;;;;20.11;74.97;101013.38;5005343;28;20492;-69
2022/06/25 04:15:25;;;;;;;8.52;2.90;;;;;;;20.09;74.06;101015.28;5003448;28;20383;-69
2022/06/25 04:17:50;;;;;;;3.03;2.30;;;;;;;20.18;74.02;101013.75;5021363;28;20065;-68
2022/06/25 04:20:15;;;;;;;4.88;2.38;;;;;;;20.20;73.51;101018.03;5022364;28;20021;-69
2022/06/25 04:22:41;;;;;;;5.13;2.47;;;;;;;20.20;73.58;101019.88;4990889;28;20037;-68
2022/06/25 04:25:07;;;;;;;4.40;1.90;;;;;;;20.25;72.92;101017.69;5003766;28;20084;-69
2022/06/25 04:30:16;;;;;;;6.22;1.95;;;;;;;20.31;73.11;101016.38;5023529;28;20131;-69
2022/06/25 04:32:41;;;;;;;5.28;2.17;;;;;;;20.31;72.62;101024.41;5010343;28;20057;-70
2022/06/25 04:35:07;;;;;;;3.63;2.22;;;;;;;20.15;72.47;101025.53;5002999;28;20041;-69
2022/06/25 04:37:32;;;;;;;4.03;2.20;;;;;;;20.24;72.88;101028.50;5003548;28;20107;-67
2022/06/25 04:39:58;;;;;;;3.15;2.40;;;;;;;20.31;72.64;101041.34;5007021;28;20484;-67
2022/06/25 04:42:23;;;;;;;6.20;2.20;;;;;;;20.28;72.53;101038.00;5015483;28;20595;-68
2022/06/25 04:44:48;;;;;;;7.55;2.35;;;;;;;20.28;72.09;101033.53;5028244;28;20104;-67
2022/06/25 04:47:14;;;;;;;7.88;2.08;;;;;;;20.35;72.17;101041.97;5020637;28;20022;-69
2022/06/25 04:49:39;;;;;;;7.00;2.30;;;;;;;20.35;72.29;101041.13;5007907;28;20518;-68
2022/06/25 04:52:05;;;;;;;9.95;2.80;;;;;;;20.23;72.67;101045.53;5010152;28;20487;-69
2022/06/25 04:54:30;;;;;;;5.43;2.40;;;;;;;20.16;72.66;101037.06;5028626;28;20052;-69
2022/06/25 04:56:55;;;;;;;6.32;2.30;;;;;;;20.25;72.78;101047.13;5025441;28;20049;-69
2022/06/25 04:59:21;;;;;;;8.88;2.33;;;;;;;20.17;73.01;101050.34;5008395;28;20029;-69
2022/06/25 05:01:46;;;;;;;11.60;2.70;;;;;;;20.20;72.69;101057.31;5007286;28;20464;-69
2022/06/25 05:04:12;;;;;;;5.43;2.63;;;;;;;20.30;72.45;101062.84;5006989;28;20604;-69
2022/06/25 05:06:37;;;;;;;5.97;2.13;;;;;;;20.35;72.82;101060.72;5006360;28;20062;-70
2022/06/25 05:09:03;;;;;;;5.07;2.67;;;;;;;20.33;72.46;101065.31;5008130;28;20029;-69
2022/06/25 05:11:28;;;;;;;7.45;2.60;;;;;;;20.50;72.39;101056.03;5007078;28;20133;-69
2022/06/25 05:13:53;;;;;;;7.45;2.72;;;;;;;20.50;71.97;101058.72;5008055;28;20033;-69
2022/06/25 05:16:19;;;;;;;6.85;2.92;;;;;;;20.58;71.56;101063.50;5007138;28;20045;-70
2022/06/25 05:18:44;;;;;;;7.82;3.08;;;;;;;20.58;71.60;101058.16;5007708;28;20030;-69
2022/06/25 05:21:10;;;;;;;7.28;2.50;;;;;;;20.70;71.71;101067.97;5006359;28;20053;-69
2022/06/25 05:23:35;;;;;;;6.18;2.75;;;;;;;20.85;70.96;101073.16;5006300;28;20084;-70
2022/06/25 05:26:02;;;;;;;7.25;2.60;;;;;;;20.98;70.56;101064.25;5008136;28;20105;-69
2022/06/25 05:28:27;;;;;;;9.18;2.70;;;;;;;21.08;70.00;101076.81;5022120;28;20508;-69
2022/06/25 05:30:52;;;;;;;3.58;2.13;;;;;;;21.23;69.50;101084.69;5006940;28;20068;-70
2022/06/25 05:33:18;;;;;;;6.75;2.42;;;;;;;21.31;69.05;101078.75;5006761;28;20484;-69
2022/06/25 05:35:43;;;;;;;6.68;2.60;;;;;;;21.46;68.97;101082.06;5006391;28;20463;-69
2022/06/25 05:38:09;;;;;;;7.10;2.30;;;;;;;21.55;68.07;101083.22;5006469;28;20018;-68
2022/06/25 05:40:35;;;;;;;6.93;2.78;;;;;;;21.63;68.41;101087.97;5008309;28;20076;-69
2022/06/25 05:43:00;;;;;;;9.18;2.95;;;;;;;21.52;69.16;101089.63;5006345;28;20022;-67
2022/06/25 05:45:26;;;;;;;4.85;2.38;;;;;;;21.65;68.04;101089.56;5005487;28;20022;-69
2022/06/25 05:47:52;;;;;;;5.38;2.00;;;;;;;21.64;67.62;101090.53;5007589;28;20022;-71
2022/06/25 05:50:17;;;;;;;6.68;2.67;;;;;;;21.87;67.07;101087.91;5004778;28;20052;-68
2022/06/25 05:52:42;;;;;;;5.72;2.47;;;;;;;22.00;66.61;101087.78;5007045;28;20472;-69
2022/06/25 05:55:08;;;;;;;4.30;2.25;;;;;;;22.05;66.78;101100.84;5005477;28;20026;-69
2022/06/25 05:57:34;;;;;;;4.05;2.17;;;;;;;22.13;66.49;101105.63;5007002;28;20049;-68
2022/06/25 06:00:00;;;;;;;6.13;2.55;;;;;;;22.20;65.70;101093.41;5006453;28;20076;-71
2022/06/25 06:02:28;;;;;;;5.45;2.30;;;;;;;22.29;65.69;101092.69;5010787;28;20032;-69
2022/06/25 06:04:54;;;;;;;4.57;2.60;;;;;;;22.34;65.08;101098.53;5007896;28;20044;-71
2022/06/25 06:07:19;;;;;;;5.20;2.38;;;;;;;22.25;65.43;101096.59;5005650;28;20025;-70
2022/06/25 06:09:45;;;;;;;7.15;3.15;;;;;;;22.33;65.13;101104.88;5008304;28;20037;-72
2022/06/25 06:12:10;;;;;;;5.30;2.70;;;;;;;22.38;65.35;101101.81;5010974;28;20076;-71
2022/06/25 06:14:35;;;;;;;5.70;2.63;;;;;;;22.49;65.19;101098.28;5004506;28;20029;-69
2022/06/25 06:17:01;;;;;;;11.02;2.50;;;;;;;22.46;65.61;101112.78;5004885;28;20029;-68
2022/06/25 06:19:26;;;;;;;5.03;2.55;;;;;;;22.66;64.58;101114.88;5010067;28;20037;-69
2022/06/25 06:21:52;;;;;;;8.40;3.10;;;;;;;22.81;63.97;101115.44;5010202;28;20084;-68
2022/06/25 06:24:17;;;;;;;8.32;2.53;;;;;;;22.94;63.50;101118.81;5005347;28;20061;-69
2022/06/25 06:26:42;;;;;;;4.63;2.92;;;;;;;22.96;64.09;101116.00;5008269;28;20034;-68
2022/06/25 06:29:08;;;;;;;8.68;3.50;;;;;;;23.04;63.90;101131.50;5010837;28;20124;-68
2022/06/25 06:31:33;;;;;;;5.90;2.97;;;;;;;23.06;63.51;101125.00;5005631;28;20092;-67
2022/06/25 06:33:58;;;;;;;7.10;3.78;;;;;;;22.96;63.15;101135.69;5011631;28;20058;-68
2022/06/25 06:36:24;;;;;;;6.82;2.92;;;;;;;22.97;63.43;101134.69;5007984;28;20068;-70
2022/06/25 06:38:49;;;;;;;5.03;2.70;;;;;;;22.87;63.60;101138.28;5006627;28;20363;-70
2022/06/25 06:41:16;;;;;;;4.75;2.88;;;;;;;23.01;63.72;101134.44;5011056;28;20026;-69
2022/06/25 06:43:42;;;;;;;8.02;3.20;;;;;;;22.97;63.82;101139.22;5005386;28;20030;-70
2022/06/25 06:46:08;;;;;;;5.65;3.40;;;;;;;23.17;62.95;101150.16;5008310;28;20024;-70
2022/06/25 06:48:33;;;;;;;8.15;3.03;;;;;;;23.08;63.52;101138.31;5006009;28;20365;-71
2022/06/25 06:50:58;;;;;;;6.22;2.70;;;;;;;23.15;63.37;101146.75;5004394;28;20033;-71
2022/06/25 06:53:24;;;;;;;8.50;2.88;;;;;;;23.22;62.83;101145.25;5005114;28;20061;-68
2022/06/25 06:55:50;;;;;;;4.28;2.28;;;;;;;23.37;62.66;101150.34;5000370;28;20494;-68
2022/06/25 06:58:17;;;;;;;6.53;2.60;;;;;;;23.10;63.23;101155.19;5006572;28;20353;-67
2022/06/25 07:00:42;;;;;;;5.88;2.55;;;;;;;23.22;62.94;101151.50;5005428;28;20089;-67
2022/06/25 07:03:08;;;;;;;6.95;2.65;;;;;;;23.20;63.52;101150.75;4999646;28;20026;-68
2022/06/25 07:05:33;;;;;;;5.00;2.20;;;;;;;23.07;63.82;101155.44;4995422;28;20050;-66
2022/06/25 07:07:58;;;;;;;7.88;2.33;;;;;;;23.12;63.78;101147.88;5002443;28;20390;-67
2022/06/25 07:10:24;;;;;;;3.53;1.88;;;;;;;23.04;63.92;101171.81;5004815;28;20026;-68
2022/06/25 07:12:49;;;;;;;4.55;2.30;;;;;;;22.83;63.86;101165.41;4998895;28;20034;-68
2022/06/25 07:15:14;;;;;;;6.82;2.22;;;;;;;22.83;63.95;101162.72;4996394;28;20451;-68
2022/06/25 07:17:40;;;;;;;7.03;2.50;;;;;;;22.54;64.91;101159.63;4994086;28;20560;-68
2022/06/25 07:20:06;;;;;;;5.65;1.90;;;;;;;22.47;64.89;101170.91;4994212;28;20033;-70
2022/06/25 07:22:32;;;;;;;6.35;2.15;;;;;;;22.33;65.26;101163.06;4997673;28;20030;-68
2022/06/25 07:24:57;;;;;;;6.30;2.38;;;;;;;22.30;65.61;101168.66;4994410;28;20543;-70
2022/06/25 07:27:23;;;;;;;8.00;2.47;;;;;;;22.28;65.79;101176.00;4994212;28;20021;-69
2022/06/25 07:29:48;;;;;;;7.60;1.98;;;;;;;22.29;66.48;101172.34;4994310;28;20345;-68
2022/06/25 07:32:13;;;;;;;4.70;1.77;;;;;;;22.33;66.19;101174.66;5000175;28;20025;-69
2022/06/25 07:34:39;;;;;;;5.60;2.55;;;;;;;22.37;66.49;101180.66;5004577;28;20029;-70
2022/06/25 07:37:04;;;;;;;7.88;2.28;;;;;;;22.37;66.45;101172.59;5013838;28;20022;-69
2022/06/25 07:39:29;;;;;;;11.57;2.65;;;;;;;22.42;66.25;101175.75;5017259;28;20026;-71
2022/06/25 07:41:55;;;;;;;5.57;1.95;;;;;;;22.51;66.09;101171.50;5003518;28;20028;-70
2022/06/25 07:44:21;;;;;;;6.43;2.40;;;;;;;22.37;67.01;101169.91;5004910;28;20408;-71
2022/06/25 07:46:46;;;;;;;4.70;2.10;;;;;;;22.53;66.20;101179.41;5005161;28;20026;-69
2022/06/25 07:49:12;;;;;;;5.70;1.90;;;;;;;22.51;65.74;101181.38;5004735;28;20201;-70
2022/06/25 07:51:56;;;;;;;4.35;2.20;;;;;;;22.42;65.96;101180.25;5003982;28;20444;-68
2022/06/25 07:54:22;;;;;;;6.20;1.67;;;;;;;22.57;65.14;101178.19;5003077;28;20071;-70
2022/06/25 07:56:48;;;;;;;6.32;1.85;;;;;;;22.54;64.96;101187.34;5004864;28;20156;-70
2022/06/25 07:59:13;;;;;;;4.68;2.00;;;;;;;22.60;65.24;101191.41;5003453;28;20484;-71
2022/06/25 08:01:39;;;;;;;3.00;1.92;;;;;;;22.62;64.88;101191.28;5004160;28;20048;-71
2022/06/25 08:04:04;;;;;;;7.22;2.10;;;;;;;22.61;65.10;101192.28;5018083;28;20025;-70
2022/06/25 08:06:31;;;;;;;3.60;2.15;;;;;;;22.63;65.11;101196.53;5003869;28;20041;-68
2022/06/25 08:08:56;;;;;;;2.92;2.25;;;;;;;22.63;65.83;101187.66;5003810;28;20044;-69
2022/06/25 08:11:22;;;;;;;6.07;2.33;;;;;;;22.66;66.09;101195.47;5002740;28;20025;-71
2022/06/25 08:13:47;;;;;;;4.32;1.95;;;;;;;22.72;66.45;101201.19;5024593;28;20396;-68
2022/06/25 08:16:13;;;;;;;6.70;2.45;;;;;;;22.64;67.64;101200.94;5023391;28;20021;-70
2022/06/25 08:18:38;;;;;;;9.57;2.45;;;;;;;22.99;66.31;101199.06;5006491;28;20026;-70
2022/06/25 08:21:05;;;;;;;4.53;2.40;;;;;;;23.12;66.47;101200.75;5003229;28;20084;-68
2022/06/25 08:23:30;;;;;;;5.13;2.53;;;;;;;22.85;66.61;101200.19;4986654;28;20461;-69
2022/06/25 08:25:55;;;;;;;5.50;2.38;;;;;;;22.76;66.66;101203.63;5004686;28;20042;-70
2022/06/25 08:28:22;;;;;;;10.68;2.83;;;;;;;22.50;66.90;101201.13;5002652;28;20117;-71
2022/06/25 08:30:48;;;;;;;5.25;2.60;;;;;;;22.40;66.16;101201.88;5003077;28;20100;-70
2022/06/25 08:33:14;;;;;;;5.60;2.42;;;;;;;22.43;66.43;101207.00;5002461;28;20105;-73
2022/06/25 08:35:40;;;;;;;6.75;2.38;;;;;;;22.39;65.77;101202.84;5002932;28;20022;-72
2022/06/25 08:38:05;;;;;;;5.50;2.60;;;;;;;22.27;65.80;101203.84;5002574;28;20164;-71
2022/06/25 08:40:31;;;;;;;3.38;2.33;;;;;;;22.39;65.84;101204.69;5004217;28;20033;-71
2022/06/25 08:42:56;;;;;;;4.20;2.25;;;;;;;22.42;65.38;101213.34;5001380;28;20162;-71
2022/06/25 08:45:21;;;;;;;4.20;2.15;;;;;;;22.24;65.90;101218.31;5004071;28;20041;-70
2022/06/25 08:47:49;;;;;;;7.18;1.92;;;;;;;22.10;66.35;101224.78;5002273;28;20045;-71
2022/06/25 08:50:17;;;;;;;4.43;1.92;;;;;;;21.88;67.23;101233.63;5003359;28;20030;-72
2022/06/25 08:52:47;;;;;;;3.63;2.13;;;;;;;21.62;68.50;101226.53;5002479;28;20033;-72
2022/06/25 08:55:21;;;;;;;6.07;2.42;;;;;;;21.41;69.27;101227.19;5004015;28;20022;-71
2022/06/25 08:57:47;;;;;;;7.63;2.42;;;;;;;21.24;69.49;101235.59;5001481;28;20072;-72
2022/06/25 09:00:13;;;;;;;6.72;3.00;;;;;;;21.05;70.03;101235.13;5003776;28;20456;-67
2022/06/25 09:02:39;;;;;;;6.97;2.17;;;;;;;20.96;69.92;101239.31;5002682;28;20518;-67
2022/06/25 09:05:06;;;;;;;8.00;1.98;;;;;;;20.89;70.81;101243.34;4985842;28;20515;-69
2022/06/25 09:07:32;;;;;;;7.70;2.75;;;;;;;20.73;71.94;101248.97;4996928;28;20076;-67
2022/06/25 09:09:57;;;;;;;5.78;2.10;;;;;;;20.68;72.29;101251.97;4986742;28;20031;-69
2022/06/25 09:12:22;;;;;;;5.22;1.90;;;;;;;20.63;72.59;101264.81;4996278;28;20480;-70
2022/06/25 09:14:48;;;;;;;5.35;2.15;;;;;;;20.46;73.09;101257.97;4992904;28;20034;-73
2022/06/25 09:17:14;;;;;;;5.88;2.45;;;;;;;20.46;73.71;101247.25;4996332;28;20022;-73
2022/06/25 09:19:42;;;;;;;8.25;2.00;;;;;;;20.54;73.74;101249.41;4987205;28;20035;-73
2022/06/25 09:22:10;;;;;;;9.45;2.08;;;;;;;20.66;72.96;101251.22;4989928;28;20046;-70
2022/06/25 09:24:39;;;;;;;6.90;1.70;;;;;;;20.76;72.83;101258.59;4995092;28;20083;-71
2022/06/25 09:27:04;;;;;;;8.40;1.83;;;;;;;20.92;72.70;101253.88;5002444;28;20037;-70
2022/06/25 09:29:39;;;;;;;7.72;2.08;;;;;;;20.96;72.20;101255.38;4993168;28;20038;-72
2022/06/25 09:32:05;;;;;;;6.93;2.42;;;;;;;21.00;72.01;101260.50;4990907;28;20469;-70
2022/06/25 09:34:35;;;;;;;6.63;1.83;;;;;;;21.08;71.89;101253.63;4992899;28;20433;-70
2022/06/25 09:37:23;;;;;;;7.03;2.05;;;;;;;21.04;71.93;101267.38;5001160;28;20018;-69
2022/06/25 09:39:50;;;;;;;9.18;2.33;;;;;;;21.04;72.25;101254.81;5002518;28;20088;-68
2022/06/25 09:42:22;;;;;;;9.55;2.70;;;;;;;20.96;71.86;101271.44;5006877;28;20425;-69
2022/06/25 09:44:48;;;;;;;9.80;2.25;;;;;;;20.98;72.48;101274.00;5006701;28;20049;-68
2022/06/25 09:47:14;;;;;;;5.70;2.00;;;;;;;21.04;71.82;101278.09;5005086;28;20021;-69
2022/06/25 09:49:39;;;;;;;8.50;2.33;;;;;;;20.85;72.74;101282.03;5004958;28;20371;-69
2022/06/25 09:52:05;;;;;;;10.45;2.80;;;;;;;20.82;73.41;101279.56;5006446;28;20112;-71
2022/06/25 09:54:32;;;;;;;9.73;2.50;;;;;;;20.83;73.76;101281.31;5005786;28;20044;-68
2022/06/25 09:56:59;;;;;;;7.10;2.50;;;;;;;20.54;74.53;101286.88;5005145;28;20014;-68
2022/06/25 09:59:30;;;;;;;5.97;2.13;;;;;;;20.58;73.30;101288.38;5004037;28;20033;-68
2022/06/25 10:01:55;;;;;;;7.72;2.42;;;;;;;20.52;72.32;101286.13;5001496;28;20045;-68
2022/06/25 10:04:21;;;;;;;9.77;1.88;;;;;;;20.59;72.74;101295.47;5005081;28;20931;-68
2022/06/25 10:06:46;;;;;;;8.45;1.85;;;;;;;20.70;70.91;101286.66;5004697;28;20032;-68
2022/06/25 10:09:13;;;;;;;6.75;1.88;;;;;;;20.86;70.69;101291.78;5013565;28;20026;-69
2022/06/25 10:11:39;;;;;;;5.57;2.03;;;;;;;20.74;71.28;101290.81;5000180;28;20022;-72
2022/06/25 10:14:04;;;;;;;6.15;1.88;;;;;;;20.84;69.75;101296.41;5003592;28;20443;-69
2022/06/25 10:16:30;;;;;;;9.70;2.50;;;;;;;21.08;68.93;101295.66;5005119;28;20022;-68
2022/06/25 10:18:56;;;;;;;7.40;1.80;;;;;;;21.42;67.30;101293.22;5005515;28;20121;-69
2022/06/25 10:21:23;;;;;;;5.57;1.90;;;;;;;21.74;67.33;101286.44;5004743;28;20041;-67
2022/06/25 10:23:52;;;;;;;7.45;2.13;;;;;;;22.20;65.58;101292.00;5004953;28;20038;-70
2022/06/25 10:26:18;;;;;;;5.97;2.17;;;;;;;22.51;65.33;101283.41;5004825;28;20380;-69
2022/06/25 10:28:44;;;;;;;7.43;2.22;;;;;;;22.79;66.47;101286.66;4999900;28;20045;-67
2022/06/25 10:31:16;;;;;;;8.50;1.92;;;;;;;23.42;64.64;101283.41;4993035;28;20109;-68
2022/06/25 10:33:56;;;;;;;9.50;2.25;;;;;;;23.35;63.67;101283.03;4990407;28;20037;-67
2022/06/25 10:36:47;;;;;;;9.60;2.10;;;;;;;23.90;60.85;101291.22;4987682;28;20095;-75
2022/06/25 10:39:25;;;;;;;5.07;1.92;;;;;;;24.43;58.56;101284.97;4992942;28;20080;-68
2022/06/25 10:45:09;;;;;;;6.35;2.60;;;;;;;24.66;58.38;101274.03;4997499;28;20041;-68
2022/06/25 10:47:38;;;;;;;4.30;2.10;;;;;;;24.61;58.52;101278.94;5004839;28;20038;-69
2022/06/25 10:50:30;;;;;;;6.18;2.30;;;;;;;24.92;57.59;101278.97;5005143;28;20026;-69
2022/06/25 10:53:02;;;;;;;3.55;2.20;;;;;;;24.95;56.11;101272.47;5000290;28;20180;-71
2022/06/25 10:55:33;;;;;;;4.97;2.45;;;;;;;25.24;55.95;101275.25;5005989;28;20026;-72
2022/06/25 10:58:12;;;;;;;7.78;2.80;;;;;;;25.60;54.87;101287.41;5005801;28;20033;-71
2022/06/25 11:00:52;;;;;;;;;;;;;;;25.62;54.71;101280.03;4990057;28;20681;-72
2022/06/25 11:03:37;;;;;;;7.28;2.97;;;;;;;25.38;56.39;101285.78;4989451;28;20004;-71
2022/06/25 11:06:18;;;;;;;9.57;3.10;;;;;;;25.60;55.53;101274.78;4995925;28;20072;-72
2022/06/25 11:08:44;;;;;;;10.18;2.70;;;;;;;25.57;55.09;101284.94;5000821;28;20069;-68
2022/06/25 11:11:10;;;;;;;9.88;3.15;;;;;;;25.95;54.21;101288.66;5006068;28;20034;-68
2022/06/25 11:13:35;;;;;;;6.97;2.63;;;;;;;25.91;54.67;101284.56;4998126;28;20048;-69
2022/06/25 11:16:12;;;;;;;6.80;2.83;;;;;;;25.93;53.21;101279.88;5003395;28;20956;-69
2022/06/25 11:18:53;;;;;;;10.15;2.85;;;;;;;25.63;54.62;101279.03;5004300;28;20147;-68
2022/06/25 11:21:26;;;;;;;8.38;3.13;;;;;;;25.02;55.97;101280.88;5004740;28;20022;-69
2022/06/25 11:23:53;;;;;;;4.60;2.65;;;;;;;24.74;57.64;101278.72;5004833;28;20129;-69
2022/06/25 11:29:02;;;;;;;7.00;2.97;;;;;;;25.33;57.79;101283.50;5004514;28;20040;-69
2022/06/25 11:31:28;;;;;;;5.65;2.60;;;;;;;25.68;55.61;101274.06;5003881;28;20117;-69
2022/06/25 11:33:57;;;;;;;4.97;2.80;;;;;;;25.70;55.34;101282.84;5003361;28;20088;-69
2022/06/25 11:36:22;;;;;;;5.78;2.50;;;;;;;25.77;54.94;101280.47;5002912;28;20116;-68